sensor_id;sensor_type;location;lat;lon;timestamp;pressure;altitude;pressure_sealevel;temperature
62932;BMP280;49037;41.898;25.004;2023-06-19T00:00:17;96311.44;;;17.86
62932;BMP280;49037;41.898;25.004;2023-06-19T00:02:50;96296.72;;;17.67
62932;BMP280;49037;41.898;25.004;2023-06-19T00:05:36;96304.91;;;17.69
62932;BMP280;49037;41.898;25.004;2023-06-19T00:08:01;96304.81;;;17.67
62932;BMP280;49037;41.898;25.004;2023-06-19T00:10:39;96300.00;;;17.77
62932;BMP280;49037;41.898;25.004;2023-06-19T00:13:04;96296.19;;;17.59
62932;BMP280;49037;41.898;25.004;2023-06-19T00:15:30;96292.63;;;17.77
62932;BMP280;49037;41.898;25.004;2023-06-19T00:18:01;96295.97;;;17.87
62932;BMP280;49037;41.898;25.004;2023-06-19T00:20:27;96297.53;;;17.69
62932;BMP280;49037;41.898;25.004;2023-06-19T00:22:52;96321.28;;;17.71
62932;BMP280;49037;41.898;25.004;2023-06-19T00:25:23;96301.16;;;17.62
62932;BMP280;49037;41.898;25.004;2023-06-19T00:27:49;96302.88;;;17.58
62932;BMP280;49037;41.898;25.004;2023-06-19T00:30:15;96314.06;;;17.64
62932;BMP280;49037;41.898;25.004;2023-06-19T00:32:40;96315.47;;;17.65
62932;BMP280;49037;41.898;25.004;2023-06-19T00:35:15;96313.81;;;17.60
62932;BMP280;49037;41.898;25.004;2023-06-19T00:37:41;96306.88;;;17.57
62932;BMP280;49037;41.898;25.004;2023-06-19T00:40:16;96324.84;;;17.64
62932;BMP280;49037;41.898;25.004;2023-06-19T00:42:44;96313.69;;;17.58
62932;BMP280;49037;41.898;25.004;2023-06-19T00:45:10;96332.59;;;17.58
62932;BMP280;49037;41.898;25.004;2023-06-19T00:47:35;96318.56;;;17.50
62932;BMP280;49037;41.898;25.004;2023-06-19T00:50:01;96313.00;;;17.37
62932;BMP280;49037;41.898;25.004;2023-06-19T00:52:26;96325.41;;;17.51
62932;BMP280;49037;41.898;25.004;2023-06-19T00:54:52;96327.66;;;17.54
62932;BMP280;49037;41.898;25.004;2023-06-19T00:57:18;96316.59;;;17.50
62932;BMP280;49037;41.898;25.004;2023-06-19T00:59:44;96320.78;;;17.42
62932;BMP280;49037;41.898;25.004;2023-06-19T01:02:12;96314.19;;;17.45
62932;BMP280;49037;41.898;25.004;2023-06-19T01:04:38;96326.44;;;17.46
62932;BMP280;49037;41.898;25.004;2023-06-19T01:07:09;96333.25;;;17.47
62932;BMP280;49037;41.898;25.004;2023-06-19T01:09:46;96329.03;;;17.44
62932;BMP280;49037;41.898;25.004;2023-06-19T01:12:17;96336.91;;;17.51
62932;BMP280;49037;41.898;25.004;2023-06-19T01:15:46;96340.91;;;17.50
62932;BMP280;49037;41.898;25.004;2023-06-19T01:18:12;96321.94;;;17.39
62932;BMP280;49037;41.898;25.004;2023-06-19T01:20:38;96319.09;;;17.37
62932;BMP280;49037;41.898;25.004;2023-06-19T01:23:11;96326.66;;;17.50
62932;BMP280;49037;41.898;25.004;2023-06-19T01:25:37;96324.91;;;17.43
62932;BMP280;49037;41.898;25.004;2023-06-19T01:28:05;96341.84;;;17.55
62932;BMP280;49037;41.898;25.004;2023-06-19T01:30:40;96334.53;;;17.46
62932;BMP280;49037;41.898;25.004;2023-06-19T01:33:15;96327.19;;;17.37
62932;BMP280;49037;41.898;25.004;2023-06-19T01:35:43;96336.03;;;17.49
62932;BMP280;49037;41.898;25.004;2023-06-19T01:38:10;96317.88;;;17.49
62932;BMP280;49037;41.898;25.004;2023-06-19T01:40:37;96320.19;;;17.44
62932;BMP280;49037;41.898;25.004;2023-06-19T01:43:04;96327.00;;;17.45
62932;BMP280;49037;41.898;25.004;2023-06-19T01:45:30;96306.06;;;17.34
62932;BMP280;49037;41.898;25.004;2023-06-19T01:47:56;96313.03;;;17.27
62932;BMP280;49037;41.898;25.004;2023-06-19T01:50:22;96301.81;;;17.31
62932;BMP280;49037;41.898;25.004;2023-06-19T01:52:49;96319.25;;;17.39
62932;BMP280;49037;41.898;25.004;2023-06-19T01:55:15;96329.31;;;17.39
62932;BMP280;49037;41.898;25.004;2023-06-19T01:57:40;96332.59;;;17.37
62932;BMP280;49037;41.898;25.004;2023-06-19T02:00:06;96322.69;;;17.30
62932;BMP280;49037;41.898;25.004;2023-06-19T02:02:38;96319.16;;;17.28
62932;BMP280;49037;41.898;25.004;2023-06-19T02:05:04;96321.72;;;17.26
62932;BMP280;49037;41.898;25.004;2023-06-19T02:07:32;96322.69;;;17.30
62932;BMP280;49037;41.898;25.004;2023-06-19T02:10:01;96329.41;;;17.29
62932;BMP280;49037;41.898;25.004;2023-06-19T02:12:26;96329.25;;;17.27
62932;BMP280;49037;41.898;25.004;2023-06-19T02:14:55;96335.16;;;17.35
62932;BMP280;49037;41.898;25.004;2023-06-19T02:17:20;96327.97;;;17.28
62932;BMP280;49037;41.898;25.004;2023-06-19T02:19:45;96325.03;;;17.24
62932;BMP280;49037;41.898;25.004;2023-06-19T02:22:11;96327.97;;;17.28
62932;BMP280;49037;41.898;25.004;2023-06-19T02:24:36;96331.31;;;17.38
62932;BMP280;49037;41.898;25.004;2023-06-19T02:27:02;96329.97;;;17.28
62932;BMP280;49037;41.898;25.004;2023-06-19T02:29:28;96335.66;;;17.22
62932;BMP280;49037;41.898;25.004;2023-06-19T02:31:55;96321.66;;;17.14
62932;BMP280;49037;41.898;25.004;2023-06-19T02:34:23;96341.22;;;17.24
62932;BMP280;49037;41.898;25.004;2023-06-19T02:36:50;96337.91;;;17.26
62932;BMP280;49037;41.898;25.004;2023-06-19T02:39:20;96330.41;;;17.24
62932;BMP280;49037;41.898;25.004;2023-06-19T02:41:46;96334.47;;;17.14
62932;BMP280;49037;41.898;25.004;2023-06-19T02:44:15;96331.03;;;17.13
62932;BMP280;49037;41.898;25.004;2023-06-19T02:46:43;96344.41;;;17.32
62932;BMP280;49037;41.898;25.004;2023-06-19T02:49:08;96346.09;;;17.37
62932;BMP280;49037;41.898;25.004;2023-06-19T02:51:34;96354.34;;;17.39
62932;BMP280;49037;41.898;25.004;2023-06-19T02:53:59;96345.41;;;17.37
62932;BMP280;49037;41.898;25.004;2023-06-19T02:56:26;96356.75;;;17.35
62932;BMP280;49037;41.898;25.004;2023-06-19T02:58:52;96344.06;;;17.47
62932;BMP280;49037;41.898;25.004;2023-06-19T03:01:18;96332.16;;;17.41
62932;BMP280;49037;41.898;25.004;2023-06-19T03:03:43;96344.16;;;17.49
62932;BMP280;49037;41.898;25.004;2023-06-19T03:06:11;96334.78;;;17.50
62932;BMP280;49037;41.898;25.004;2023-06-19T03:09:22;96325.66;;;17.55
62932;BMP280;49037;41.898;25.004;2023-06-19T03:11:48;96325.47;;;17.62
62932;BMP280;49037;41.898;25.004;2023-06-19T03:14:13;96323.97;;;17.71
62932;BMP280;49037;41.898;25.004;2023-06-19T03:16:39;96326.69;;;17.71
62932;BMP280;49037;41.898;25.004;2023-06-19T03:19:04;96329.81;;;17.67
62932;BMP280;49037;41.898;25.004;2023-06-19T03:21:30;96324.28;;;17.65
62932;BMP280;49037;41.898;25.004;2023-06-19T03:23:55;96330.91;;;17.74
62932;BMP280;49037;41.898;25.004;2023-06-19T03:26:21;96335.13;;;17.77
62932;BMP280;49037;41.898;25.004;2023-06-19T03:28:47;96334.06;;;17.70
62932;BMP280;49037;41.898;25.004;2023-06-19T03:31:13;96331.84;;;17.67
62932;BMP280;49037;41.898;25.004;2023-06-19T03:33:38;96333.22;;;17.68
62932;BMP280;49037;41.898;25.004;2023-06-19T03:36:04;96336.56;;;17.78
62932;BMP280;49037;41.898;25.004;2023-06-19T03:38:31;96327.81;;;17.68
62932;BMP280;49037;41.898;25.004;2023-06-19T03:40:56;96331.94;;;17.69
62932;BMP280;49037;41.898;25.004;2023-06-19T03:43:22;96334.63;;;17.69
62932;BMP280;49037;41.898;25.004;2023-06-19T03:45:47;96317.53;;;17.76
62932;BMP280;49037;41.898;25.004;2023-06-19T03:48:12;96333.22;;;17.88
62932;BMP280;49037;41.898;25.004;2023-06-19T03:50:38;96335.91;;;17.88
62932;BMP280;49037;41.898;25.004;2023-06-19T03:53:03;96329.66;;;17.86
62932;BMP280;49037;41.898;25.004;2023-06-19T03:55:29;96326.63;;;17.91
62932;BMP280;49037;41.898;25.004;2023-06-19T03:57:55;96336.53;;;17.98
62932;BMP280;49037;41.898;25.004;2023-06-19T04:00:21;96335.81;;;17.98
62932;BMP280;49037;41.898;25.004;2023-06-19T04:02:46;96338.34;;;18.17
62932;BMP280;49037;41.898;25.004;2023-06-19T04:05:13;96350.59;;;18.29
62932;BMP280;49037;41.898;25.004;2023-06-19T04:07:38;96347.78;;;18.50
62932;BMP280;49037;41.898;25.004;2023-06-19T04:12:38;96346.06;;;18.77
62932;BMP280;49037;41.898;25.004;2023-06-19T04:18:13;96328.84;;;19.06
62932;BMP280;49037;41.898;25.004;2023-06-19T04:20:38;96328.75;;;19.16
62932;BMP280;49037;41.898;25.004;2023-06-19T04:25:37;96332.84;;;19.64
62932;BMP280;49037;41.898;25.004;2023-06-19T04:28:42;96325.09;;;19.83
62932;BMP280;49037;41.898;25.004;2023-06-19T04:31:07;96335.47;;;20.12
62932;BMP280;49037;41.898;25.004;2023-06-19T04:33:33;96336.50;;;20.31
62932;BMP280;49037;41.898;25.004;2023-06-19T04:35:58;96333.13;;;20.44
62932;BMP280;49037;41.898;25.004;2023-06-19T04:38:24;96338.38;;;20.80
62932;BMP280;49037;41.898;25.004;2023-06-19T04:40:50;96327.94;;;21.01
62932;BMP280;49037;41.898;25.004;2023-06-19T04:43:16;96344.69;;;21.25
62932;BMP280;49037;41.898;25.004;2023-06-19T04:49:14;96343.59;;;21.58
62932;BMP280;49037;41.898;25.004;2023-06-19T04:51:40;96343.31;;;21.81
62932;BMP280;49037;41.898;25.004;2023-06-19T05:03:50;96367.69;;;22.84
62932;BMP280;49037;41.898;25.004;2023-06-19T05:07:02;96366.47;;;23.19
62932;BMP280;49037;41.898;25.004;2023-06-19T05:10:16;96367.91;;;23.55
62932;BMP280;49037;41.898;25.004;2023-06-19T05:12:42;96374.25;;;23.77
62932;BMP280;49037;41.898;25.004;2023-06-19T05:15:08;96369.63;;;23.98
62932;BMP280;49037;41.898;25.004;2023-06-19T05:17:33;96367.94;;;24.26
62932;BMP280;49037;41.898;25.004;2023-06-19T05:20:31;96367.75;;;24.59
62932;BMP280;49037;41.898;25.004;2023-06-19T05:22:56;96359.34;;;24.72
62932;BMP280;49037;41.898;25.004;2023-06-19T05:25:21;96360.22;;;24.78
62932;BMP280;49037;41.898;25.004;2023-06-19T05:27:47;96353.09;;;24.69
62932;BMP280;49037;41.898;25.004;2023-06-19T05:30:12;96346.22;;;24.88
62932;BMP280;49037;41.898;25.004;2023-06-19T05:32:38;96361.84;;;24.85
62932;BMP280;49037;41.898;25.004;2023-06-19T05:35:03;96369.19;;;25.00
62932;BMP280;49037;41.898;25.004;2023-06-19T05:39:28;96365.41;;;25.51
62932;BMP280;49037;41.898;25.004;2023-06-19T05:41:53;96347.56;;;25.50
62932;BMP280;49037;41.898;25.004;2023-06-19T05:44:18;96372.84;;;25.06
62932;BMP280;49037;41.898;25.004;2023-06-19T05:46:44;96367.41;;;24.49
62932;BMP280;49037;41.898;25.004;2023-06-19T05:49:10;96367.53;;;24.72
62932;BMP280;49037;41.898;25.004;2023-06-19T05:51:35;96367.69;;;25.16
62932;BMP280;49037;41.898;25.004;2023-06-19T05:54:01;96381.19;;;25.32
62932;BMP280;49037;41.898;25.004;2023-06-19T05:56:32;96375.97;;;25.61
62932;BMP280;49037;41.898;25.004;2023-06-19T05:58:59;96387.09;;;25.45
62932;BMP280;49037;41.898;25.004;2023-06-19T06:01:25;96381.59;;;25.67
62932;BMP280;49037;41.898;25.004;2023-06-19T06:03:53;96383.84;;;25.72
62932;BMP280;49037;41.898;25.004;2023-06-19T06:06:20;96379.38;;;25.82
62932;BMP280;49037;41.898;25.004;2023-06-19T06:08:45;96387.00;;;25.86
62932;BMP280;49037;41.898;25.004;2023-06-19T06:11:11;96384.84;;;26.05
62932;BMP280;49037;41.898;25.004;2023-06-19T06:13:36;96375.88;;;26.26
62932;BMP280;49037;41.898;25.004;2023-06-19T06:16:02;96387.19;;;26.15
62932;BMP280;49037;41.898;25.004;2023-06-19T06:18:27;96376.72;;;26.09
62932;BMP280;49037;41.898;25.004;2023-06-19T06:20:53;96383.31;;;26.01
62932;BMP280;49037;41.898;25.004;2023-06-19T06:23:18;96367.66;;;25.80
62932;BMP280;49037;41.898;25.004;2023-06-19T06:25:43;96372.97;;;25.97
62932;BMP280;49037;41.898;25.004;2023-06-19T06:30:14;96386.53;;;26.16
62932;BMP280;49037;41.898;25.004;2023-06-19T06:33:02;96377.03;;;26.42
62932;BMP280;49037;41.898;25.004;2023-06-19T06:35:28;96387.25;;;26.40
62932;BMP280;49037;41.898;25.004;2023-06-19T06:37:59;96380.91;;;26.59
62932;BMP280;49037;41.898;25.004;2023-06-19T06:40:27;96390.13;;;26.71
62932;BMP280;49037;41.898;25.004;2023-06-19T06:42:53;96381.53;;;26.82
62932;BMP280;49037;41.898;25.004;2023-06-19T06:45:19;96391.19;;;25.89
62932;BMP280;49037;41.898;25.004;2023-06-19T06:47:44;96382.94;;;26.10
62932;BMP280;49037;41.898;25.004;2023-06-19T06:50:37;96379.38;;;26.29
62932;BMP280;49037;41.898;25.004;2023-06-19T06:53:02;96389.41;;;26.20
62932;BMP280;49037;41.898;25.004;2023-06-19T06:55:28;96380.19;;;26.33
62932;BMP280;49037;41.898;25.004;2023-06-19T06:57:54;96392.75;;;26.42
62932;BMP280;49037;41.898;25.004;2023-06-19T07:00:20;96391.41;;;26.43
62932;BMP280;49037;41.898;25.004;2023-06-19T07:02:45;96392.19;;;26.22
62932;BMP280;49037;41.898;25.004;2023-06-19T07:05:13;96396.13;;;26.66
62932;BMP280;49037;41.898;25.004;2023-06-19T07:07:41;96385.84;;;26.41
62932;BMP280;49037;41.898;25.004;2023-06-19T07:10:07;96386.41;;;25.89
62932;BMP280;49037;41.898;25.004;2023-06-19T07:12:33;96397.06;;;26.49
62932;BMP280;49037;41.898;25.004;2023-06-19T07:15:01;96395.13;;;26.78
62932;BMP280;49037;41.898;25.004;2023-06-19T07:17:27;96393.34;;;26.64
62932;BMP280;49037;41.898;25.004;2023-06-19T07:19:52;96400.41;;;26.98
62932;BMP280;49037;41.898;25.004;2023-06-19T07:22:20;96397.28;;;27.09
62932;BMP280;49037;41.898;25.004;2023-06-19T07:24:53;96399.25;;;26.54
62932;BMP280;49037;41.898;25.004;2023-06-19T07:27:30;96393.88;;;26.33
62932;BMP280;49037;41.898;25.004;2023-06-19T07:30:06;96406.25;;;26.34
62932;BMP280;49037;41.898;25.004;2023-06-19T07:32:39;96393.13;;;26.31
62932;BMP280;49037;41.898;25.004;2023-06-19T07:35:13;96398.81;;;26.64
62932;BMP280;49037;41.898;25.004;2023-06-19T07:38:09;96401.88;;;27.01
62932;BMP280;49037;41.898;25.004;2023-06-19T07:40:46;96386.25;;;26.80
62932;BMP280;49037;41.898;25.004;2023-06-19T07:43:54;96402.59;;;27.01
62932;BMP280;49037;41.898;25.004;2023-06-19T07:46:45;96404.19;;;27.10
62932;BMP280;49037;41.898;25.004;2023-06-19T07:49:13;96414.28;;;26.76
62932;BMP280;49037;41.898;25.004;2023-06-19T07:52:02;96409.09;;;26.88
62932;BMP280;49037;41.898;25.004;2023-06-19T07:57:39;96406.03;;;26.28
62932;BMP280;49037;41.898;25.004;2023-06-19T08:00:24;96407.97;;;26.72
62932;BMP280;49037;41.898;25.004;2023-06-19T08:02:53;96421.75;;;26.51
62932;BMP280;49037;41.898;25.004;2023-06-19T08:09:14;96419.44;;;26.65
62932;BMP280;49037;41.898;25.004;2023-06-19T08:15:25;96404.59;;;26.73
62932;BMP280;49037;41.898;25.004;2023-06-19T08:21:15;96417.75;;;26.79
62932;BMP280;49037;41.898;25.004;2023-06-19T08:23:46;96413.28;;;26.91
62932;BMP280;49037;41.898;25.004;2023-06-19T08:26:52;96404.91;;;27.12
62932;BMP280;49037;41.898;25.004;2023-06-19T08:30:15;96435.47;;;27.01
62932;BMP280;49037;41.898;25.004;2023-06-19T08:32:51;96420.03;;;26.38
62932;BMP280;49037;41.898;25.004;2023-06-19T08:35:36;96420.97;;;26.23
62932;BMP280;49037;41.898;25.004;2023-06-19T08:38:18;96423.44;;;26.37
62932;BMP280;49037;41.898;25.004;2023-06-19T08:41:03;96428.22;;;26.86
62932;BMP280;49037;41.898;25.004;2023-06-19T08:44:07;96430.63;;;27.00
62932;BMP280;49037;41.898;25.004;2023-06-19T08:49:54;96418.38;;;27.30
62932;BMP280;49037;41.898;25.004;2023-06-19T08:56:17;96432.88;;;27.61
62932;BMP280;49037;41.898;25.004;2023-06-19T09:34:52;96411.16;;;27.71
62932;BMP280;49037;41.898;25.004;2023-06-19T09:37:57;96425.75;;;27.50
62932;BMP280;49037;41.898;25.004;2023-06-19T09:40:28;96413.59;;;27.03
62932;BMP280;49037;41.898;25.004;2023-06-19T10:24:13;96392.38;;;27.91
62932;BMP280;49037;41.898;25.004;2023-06-19T10:27:24;96399.22;;;27.90
62932;BMP280;49037;41.898;25.004;2023-06-19T10:44:05;96381.19;;;28.14
62932;BMP280;49037;41.898;25.004;2023-06-19T11:01:52;96371.81;;;27.94
62932;BMP280;49037;41.898;25.004;2023-06-19T11:34:48;96370.34;;;28.20
62932;BMP280;49037;41.898;25.004;2023-06-19T11:40:20;96364.69;;;28.49
62932;BMP280;49037;41.898;25.004;2023-06-19T12:59:12;96322.91;;;28.54
62932;BMP280;49037;41.898;25.004;2023-06-19T15:07:58;96290.53;;;28.51
62932;BMP280;49037;41.898;25.004;2023-06-19T15:10:33;96295.50;;;28.23
62932;BMP280;49037;41.898;25.004;2023-06-19T15:13:12;96286.91;;;28.04
62932;BMP280;49037;41.898;25.004;2023-06-19T15:16:12;96273.88;;;27.71
62932;BMP280;49037;41.898;25.004;2023-06-19T15:19:01;96294.69;;;27.82
62932;BMP280;49037;41.898;25.004;2023-06-19T15:25:24;96294.53;;;27.74
62932;BMP280;49037;41.898;25.004;2023-06-19T15:27:58;96300.66;;;28.05
62932;BMP280;49037;41.898;25.004;2023-06-19T15:33:49;96304.31;;;27.83
62932;BMP280;49037;41.898;25.004;2023-06-19T15:37:08;96319.31;;;27.76
62932;BMP280;49037;41.898;25.004;2023-06-19T15:40:32;96325.09;;;27.92
62932;BMP280;49037;41.898;25.004;2023-06-19T15:43:40;96313.13;;;28.10
62932;BMP280;49037;41.898;25.004;2023-06-19T15:46:46;96316.59;;;28.13
62932;BMP280;49037;41.898;25.004;2023-06-19T15:49:14;96322.41;;;27.94
62932;BMP280;49037;41.898;25.004;2023-06-19T15:52:08;96310.97;;;27.72
62932;BMP280;49037;41.898;25.004;2023-06-19T15:54:56;96325.91;;;27.65
62932;BMP280;49037;41.898;25.004;2023-06-19T15:57:46;96328.63;;;27.34
62932;BMP280;49037;41.898;25.004;2023-06-19T16:00:24;96335.63;;;27.10
62932;BMP280;49037;41.898;25.004;2023-06-19T16:13:55;96323.75;;;27.02
62932;BMP280;49037;41.898;25.004;2023-06-19T16:18:25;96343.78;;;27.08
62932;BMP280;49037;41.898;25.004;2023-06-19T16:20:55;96348.22;;;27.21
62932;BMP280;49037;41.898;25.004;2023-06-19T16:23:28;96348.16;;;27.19
62932;BMP280;49037;41.898;25.004;2023-06-19T16:26:04;96347.06;;;27.30
62932;BMP280;49037;41.898;25.004;2023-06-19T16:28:40;96340.13;;;27.27
62932;BMP280;49037;41.898;25.004;2023-06-19T16:31:44;96339.41;;;27.24
62932;BMP280;49037;41.898;25.004;2023-06-19T16:34:38;96351.13;;;27.29
62932;BMP280;49037;41.898;25.004;2023-06-19T16:41:23;96346.72;;;26.89
62932;BMP280;49037;41.898;25.004;2023-06-19T16:44:30;96335.63;;;26.83
62932;BMP280;49037;41.898;25.004;2023-06-19T16:57:22;96355.13;;;26.68
62932;BMP280;49037;41.898;25.004;2023-06-19T17:55:43;96408.78;;;24.24
62932;BMP280;49037;41.898;25.004;2023-06-19T17:58:12;96413.44;;;24.02
62932;BMP280;49037;41.898;25.004;2023-06-19T18:00:40;96398.94;;;23.81
62932;BMP280;49037;41.898;25.004;2023-06-19T18:24:39;96443.59;;;23.07
62932;BMP280;49037;41.898;25.004;2023-06-19T18:27:30;96438.59;;;22.71
62932;BMP280;49037;41.898;25.004;2023-06-19T18:30:27;96445.97;;;22.68
62932;BMP280;49037;41.898;25.004;2023-06-19T18:36:14;96437.13;;;22.24
62932;BMP280;49037;41.898;25.004;2023-06-19T18:52:59;96454.31;;;21.84
62932;BMP280;49037;41.898;25.004;2023-06-19T18:56:06;96452.03;;;21.66
62932;BMP280;49037;41.898;25.004;2023-06-19T18:58:56;96468.34;;;21.66
62932;BMP280;49037;41.898;25.004;2023-06-19T19:27:14;96473.34;;;21.04
62932;BMP280;49037;41.898;25.004;2023-06-19T19:30:14;96498.91;;;20.86
62932;BMP280;49037;41.898;25.004;2023-06-19T19:33:17;96479.84;;;20.48
62932;BMP280;49037;41.898;25.004;2023-06-19T19:35:46;96489.69;;;20.42
62932;BMP280;49037;41.898;25.004;2023-06-19T19:38:12;96490.78;;;20.37
62932;BMP280;49037;41.898;25.004;2023-06-19T19:40:56;96507.00;;;20.12
62932;BMP280;49037;41.898;25.004;2023-06-19T19:43:28;96486.03;;;20.13
62932;BMP280;49037;41.898;25.004;2023-06-19T19:46:03;96501.13;;;20.04
62932;BMP280;49037;41.898;25.004;2023-06-19T19:51:30;96517.06;;;19.98
62932;BMP280;49037;41.898;25.004;2023-06-19T19:53:58;96513.34;;;19.81
62932;BMP280;49037;41.898;25.004;2023-06-19T19:56:23;96514.50;;;19.89
62932;BMP280;49037;41.898;25.004;2023-06-19T19:58:51;96515.66;;;19.97
62932;BMP280;49037;41.898;25.004;2023-06-19T20:03:12;96518.00;;;20.03
62932;BMP280;49037;41.898;25.004;2023-06-19T20:05:41;96519.09;;;19.98
62932;BMP280;49037;41.898;25.004;2023-06-19T20:09:54;96523.78;;;19.97
62932;BMP280;49037;41.898;25.004;2023-06-19T20:12:20;96525.44;;;19.91
62932;BMP280;49037;41.898;25.004;2023-06-19T20:14:54;96526.28;;;19.82
62932;BMP280;49037;41.898;25.004;2023-06-19T20:17:48;96512.88;;;19.61
62932;BMP280;49037;41.898;25.004;2023-06-19T20:20:40;96525.97;;;19.53
62932;BMP280;49037;41.898;25.004;2023-06-19T20:26:47;96523.97;;;19.43
62932;BMP280;49037;41.898;25.004;2023-06-19T20:29:15;96531.13;;;19.49
62932;BMP280;49037;41.898;25.004;2023-06-19T20:35:50;96542.78;;;19.41
62932;BMP280;49037;41.898;25.004;2023-06-19T20:39:56;96543.00;;;19.33
62932;BMP280;49037;41.898;25.004;2023-06-19T20:42:21;96536.44;;;19.36
62932;BMP280;49037;41.898;25.004;2023-06-19T20:44:46;96534.09;;;19.31
62932;BMP280;49037;41.898;25.004;2023-06-19T20:48:17;96527.03;;;19.26
62932;BMP280;49037;41.898;25.004;2023-06-19T20:50:46;96520.66;;;19.21
62932;BMP280;49037;41.898;25.004;2023-06-19T20:53:15;96524.41;;;19.28
62932;BMP280;49037;41.898;25.004;2023-06-19T20:58:06;96514.03;;;19.13
62932;BMP280;49037;41.898;25.004;2023-06-19T21:00:31;96528.75;;;19.10
62932;BMP280;49037;41.898;25.004;2023-06-19T21:02:58;96512.63;;;19.01
62932;BMP280;49037;41.898;25.004;2023-06-19T21:06:00;96527.56;;;19.13
62932;BMP280;49037;41.898;25.004;2023-06-19T21:08:25;96512.53;;;19.10
62932;BMP280;49037;41.898;25.004;2023-06-19T21:13:45;96521.81;;;19.07
62932;BMP280;49037;41.898;25.004;2023-06-19T21:16:11;96517.31;;;19.11
62932;BMP280;49037;41.898;25.004;2023-06-19T21:18:37;96512.25;;;19.06
62932;BMP280;49037;41.898;25.004;2023-06-19T21:21:05;96519.09;;;19.07
62932;BMP280;49037;41.898;25.004;2023-06-19T21:23:30;96516.34;;;18.84
62932;BMP280;49037;41.898;25.004;2023-06-19T21:25:56;96527.66;;;18.92
62932;BMP280;49037;41.898;25.004;2023-06-19T21:28:21;96526.81;;;18.90
62932;BMP280;49037;41.898;25.004;2023-06-19T21:30:47;96515.28;;;18.89
62932;BMP280;49037;41.898;25.004;2023-06-19T21:33:12;96513.75;;;18.86
62932;BMP280;49037;41.898;25.004;2023-06-19T21:35:38;96526.97;;;18.92
62932;BMP280;49037;41.898;25.004;2023-06-19T21:38:06;96510.81;;;18.82
62932;BMP280;49037;41.898;25.004;2023-06-19T21:42:15;96515.13;;;18.76
62932;BMP280;49037;41.898;25.004;2023-06-19T21:44:40;96502.06;;;18.72
62932;BMP280;49037;41.898;25.004;2023-06-19T21:47:08;96530.78;;;18.77
62932;BMP280;49037;41.898;25.004;2023-06-19T21:49:33;96521.16;;;18.74
62932;BMP280;49037;41.898;25.004;2023-06-19T21:51:59;96534.22;;;18.78
62932;BMP280;49037;41.898;25.004;2023-06-19T21:55:28;96512.41;;;18.65
62932;BMP280;49037;41.898;25.004;2023-06-19T21:57:54;96525.13;;;18.73
62932;BMP280;49037;41.898;25.004;2023-06-19T22:00:19;96519.69;;;18.62
62932;BMP280;49037;41.898;25.004;2023-06-19T22:02:47;96517.09;;;18.64
62932;BMP280;49037;41.898;25.004;2023-06-19T22:05:13;96514.28;;;18.62
62932;BMP280;49037;41.898;25.004;2023-06-19T22:07:38;96526.06;;;18.67
62932;BMP280;49037;41.898;25.004;2023-06-19T22:10:04;96535.81;;;18.71
62932;BMP280;49037;41.898;25.004;2023-06-19T22:12:30;96530.41;;;18.71
62932;BMP280;49037;41.898;25.004;2023-06-19T22:15:20;96536.19;;;18.77
62932;BMP280;49037;41.898;25.004;2023-06-19T22:19:30;96531.72;;;18.70
62932;BMP280;49037;41.898;25.004;2023-06-19T22:21:55;96529.25;;;18.74
62932;BMP280;49037;41.898;25.004;2023-06-19T22:24:21;96535.16;;;18.82
62932;BMP280;49037;41.898;25.004;2023-06-19T22:26:46;96526.88;;;18.69
62932;BMP280;49037;41.898;25.004;2023-06-19T22:29:12;96517.09;;;18.64
62932;BMP280;49037;41.898;25.004;2023-06-19T22:31:37;96522.19;;;18.69
62932;BMP280;49037;41.898;25.004;2023-06-19T22:34:03;96532.06;;;18.76
62932;BMP280;49037;41.898;25.004;2023-06-19T22:36:28;96524.50;;;18.64
62932;BMP280;49037;41.898;25.004;2023-06-19T22:39:20;96516.03;;;18.58
62932;BMP280;49037;41.898;25.004;2023-06-19T22:41:45;96529.13;;;18.72
62932;BMP280;49037;41.898;25.004;2023-06-19T22:44:11;96528.38;;;18.61
62932;BMP280;49037;41.898;25.004;2023-06-19T22:46:36;96526.97;;;18.60
62932;BMP280;49037;41.898;25.004;2023-06-19T22:49:02;96528.38;;;18.61
62932;BMP280;49037;41.898;25.004;2023-06-19T22:51:29;96513.53;;;18.50
62932;BMP280;49037;41.898;25.004;2023-06-19T22:53:55;96512.69;;;18.48
62932;BMP280;49037;41.898;25.004;2023-06-19T22:58:11;96522.56;;;18.55
62932;BMP280;49037;41.898;25.004;2023-06-19T23:00:37;96529.41;;;18.56
62932;BMP280;49037;41.898;25.004;2023-06-19T23:03:03;96526.31;;;18.50
62932;BMP280;49037;41.898;25.004;2023-06-19T23:05:29;96513.34;;;18.37
62932;BMP280;49037;41.898;25.004;2023-06-19T23:07:55;96520.66;;;18.46
62932;BMP280;49037;41.898;25.004;2023-06-19T23:10:23;96521.34;;;18.35
62932;BMP280;49037;41.898;25.004;2023-06-19T23:12:51;96521.97;;;18.24
62932;BMP280;49037;41.898;25.004;2023-06-19T23:15:17;96506.91;;;18.00
62932;BMP280;49037;41.898;25.004;2023-06-19T23:17:42;96518.38;;;18.10
62932;BMP280;49037;41.898;25.004;2023-06-19T23:20:08;96513.63;;;17.99
62932;BMP280;49037;41.898;25.004;2023-06-19T23:22:39;96518.56;;;18.03
62932;BMP280;49037;41.898;25.004;2023-06-19T23:25:06;96513.94;;;18.15
62932;BMP280;49037;41.898;25.004;2023-06-19T23:27:31;96512.25;;;18.10
62932;BMP280;49037;41.898;25.004;2023-06-19T23:30:16;96491.63;;;17.93
62932;BMP280;49037;41.898;25.004;2023-06-19T23:32:42;96505.06;;;18.03
62932;BMP280;49037;41.898;25.004;2023-06-19T23:35:07;96509.59;;;18.00
62932;BMP280;49037;41.898;25.004;2023-06-19T23:37:48;96503.19;;;17.85
62932;BMP280;49037;41.898;25.004;2023-06-19T23:40:17;96491.81;;;17.77
62932;BMP280;49037;41.898;25.004;2023-06-19T23:42:50;96487.84;;;17.78
62932;BMP280;49037;41.898;25.004;2023-06-19T23:45:24;96497.13;;;17.95
62932;BMP280;49037;41.898;25.004;2023-06-19T23:47:59;96498.22;;;17.81
62932;BMP280;49037;41.898;25.004;2023-06-19T23:50:24;96501.59;;;17.82
62932;BMP280;49037;41.898;25.004;2023-06-19T23:52:52;96512.47;;;17.72
62932;BMP280;49037;41.898;25.004;2023-06-19T23:55:20;96499.47;;;17.59